sensor_id;sensor_type;location;lat;lon;timestamp;pressure;altitude;pressure_sealevel;temperature;humidity
8294;BME280;4185;41.506;24.938;2023-02-01T00:02:20;93335.56;;;-1.55;80.79
8294;BME280;4185;41.506;24.938;2023-02-01T00:04:47;93351.63;;;-1.59;80.91
8294;BME280;4185;41.506;24.938;2023-02-01T00:07:14;93352.53;;;-1.65;80.46
8294;BME280;4185;41.506;24.938;2023-02-01T00:09:40;93353.22;;;-1.61;80.85
8294;BME280;4185;41.506;24.938;2023-02-01T00:12:07;93354.09;;;-1.68;80.58
8294;BME280;4185;41.506;24.938;2023-02-01T00:14:34;93354.25;;;-1.75;80.66
8294;BME280;4185;41.506;24.938;2023-02-01T00:17:04;93345.78;;;-1.70;80.93
8294;BME280;4185;41.506;24.938;2023-02-01T00:19:33;93347.88;;;-1.81;80.27
8294;BME280;4185;41.506;24.938;2023-02-01T00:22:00;93335.75;;;-1.82;80.61
8294;BME280;4185;41.506;24.938;2023-02-01T00:24:27;93343.88;;;-1.89;81.15
8294;BME280;4185;41.506;24.938;2023-02-01T00:26:54;93342.44;;;-1.93;81.38
8294;BME280;4185;41.506;24.938;2023-02-01T00:29:21;93346.25;;;-1.94;81.10
8294;BME280;4185;41.506;24.938;2023-02-01T00:31:49;93345.59;;;-1.98;81.01
8294;BME280;4185;41.506;24.938;2023-02-01T00:34:16;93352.06;;;-1.99;81.43
8294;BME280;4185;41.506;24.938;2023-02-01T00:36:45;93339.22;;;-2.04;81.19
8294;BME280;4185;41.506;24.938;2023-02-01T00:39:12;93354.78;;;-2.03;81.09
8294;BME280;4185;41.506;24.938;2023-02-01T00:41:39;93356.09;;;-1.91;80.61
8294;BME280;4185;41.506;24.938;2023-02-01T00:44:06;93361.22;;;-2.00;81.12
8294;BME280;4185;41.506;24.938;2023-02-01T00:46:33;93364.75;;;-2.07;81.57
8294;BME280;4185;41.506;24.938;2023-02-01T00:49:00;93363.94;;;-2.04;81.75
8294;BME280;4185;41.506;24.938;2023-02-01T00:51:28;93365.34;;;-1.99;81.27
8294;BME280;4185;41.506;24.938;2023-02-01T00:53:57;93370.06;;;-1.87;80.81
8294;BME280;4185;41.506;24.938;2023-02-01T00:56:24;93375.06;;;-1.89;80.10
8294;BME280;4185;41.506;24.938;2023-02-01T00:58:52;93364.56;;;-1.96;80.91
8294;BME280;4185;41.506;24.938;2023-02-01T01:01:21;93366.47;;;-1.97;80.65
8294;BME280;4185;41.506;24.938;2023-02-01T01:03:50;93363.16;;;-2.04;80.38
8294;BME280;4185;41.506;24.938;2023-02-01T01:06:20;93364.81;;;-2.10;80.79
8294;BME280;4185;41.506;24.938;2023-02-01T01:08:47;93369.09;;;-2.16;81.11
8294;BME280;4185;41.506;24.938;2023-02-01T01:11:17;93366.84;;;-2.18;81.53
8294;BME280;4185;41.506;24.938;2023-02-01T01:13:45;93368.72;;;-2.15;81.70
8294;BME280;4185;41.506;24.938;2023-02-01T01:16:13;93369.91;;;-2.19;81.70
8294;BME280;4185;41.506;24.938;2023-02-01T01:18:40;93365.06;;;-2.24;81.27
8294;BME280;4185;41.506;24.938;2023-02-01T01:21:08;93368.13;;;-2.26;81.51
8294;BME280;4185;41.506;24.938;2023-02-01T01:23:35;93352.94;;;-2.25;81.10
8294;BME280;4185;41.506;24.938;2023-02-01T01:26:05;93359.81;;;-2.28;81.37
8294;BME280;4185;41.506;24.938;2023-02-01T01:28:34;93359.47;;;-2.30;81.69
8294;BME280;4185;41.506;24.938;2023-02-01T01:31:00;93359.88;;;-2.31;81.78
8294;BME280;4185;41.506;24.938;2023-02-01T01:33:27;93360.78;;;-2.18;81.47
8294;BME280;4185;41.506;24.938;2023-02-01T01:35:54;93356.25;;;-2.21;81.39
8294;BME280;4185;41.506;24.938;2023-02-01T01:38:21;93362.69;;;-2.19;81.51
8294;BME280;4185;41.506;24.938;2023-02-01T01:40:48;93366.19;;;-2.22;81.61
8294;BME280;4185;41.506;24.938;2023-02-01T01:43:18;93360.56;;;-2.27;81.70
8294;BME280;4185;41.506;24.938;2023-02-01T01:45:49;93356.06;;;-2.30;81.80
8294;BME280;4185;41.506;24.938;2023-02-01T01:48:19;93360.56;;;-2.27;82.52
8294;BME280;4185;41.506;24.938;2023-02-01T01:50:50;93356.47;;;-2.32;82.51
8294;BME280;4185;41.506;24.938;2023-02-01T01:53:20;93356.19;;;-2.37;82.24
8294;BME280;4185;41.506;24.938;2023-02-01T01:55:50;93366.72;;;-2.30;82.53
8294;BME280;4185;41.506;24.938;2023-02-01T01:58:22;93367.53;;;-2.33;82.33
8294;BME280;4185;41.506;24.938;2023-02-01T02:00:52;93378.03;;;-2.26;82.12
8294;BME280;4185;41.506;24.938;2023-02-01T02:03:22;93367.06;;;-2.28;81.74
8294;BME280;4185;41.506;24.938;2023-02-01T02:05:52;93359.13;;;-2.32;82.51
8294;BME280;4185;41.506;24.938;2023-02-01T02:08:20;93360.50;;;-2.24;81.92
8294;BME280;4185;41.506;24.938;2023-02-01T02:10:50;93362.75;;;-2.22;81.85
8294;BME280;4185;41.506;24.938;2023-02-01T02:13:28;93359.13;;;-2.32;82.71
8294;BME280;4185;41.506;24.938;2023-02-01T02:16:05;93361.03;;;-2.32;82.64
8294;BME280;4185;41.506;24.938;2023-02-01T02:18:42;93355.72;;;-2.32;83.00
8294;BME280;4185;41.506;24.938;2023-02-01T02:21:14;93356.47;;;-2.32;82.75
8294;BME280;4185;41.506;24.938;2023-02-01T02:24:09;93361.16;;;-2.39;83.19
8294;BME280;4185;41.506;24.938;2023-02-01T02:27:03;93364.69;;;-2.46;83.07
8294;BME280;4185;41.506;24.938;2023-02-01T02:33:37;93369.50;;;-2.37;83.33
8294;BME280;4185;41.506;24.938;2023-02-01T02:36:10;93356.78;;;-2.50;82.55
8294;BME280;4185;41.506;24.938;2023-02-01T02:38:45;93370.78;;;-2.45;83.00
8294;BME280;4185;41.506;24.938;2023-02-01T02:41:16;93360.81;;;-2.41;83.13
8294;BME280;4185;41.506;24.938;2023-02-01T02:43:59;93369.03;;;-2.32;82.47
8294;BME280;4185;41.506;24.938;2023-02-01T02:46:50;93372.38;;;-2.28;82.20
8294;BME280;4185;41.506;24.938;2023-02-01T02:49:42;93370.50;;;-2.31;82.27
8294;BME280;4185;41.506;24.938;2023-02-01T02:52:36;93372.97;;;-2.40;82.76
8294;BME280;4185;41.506;24.938;2023-02-01T02:55:26;93376.72;;;-2.38;82.77
8294;BME280;4185;41.506;24.938;2023-02-01T02:57:55;93384.16;;;-2.29;82.40
8294;BME280;4185;41.506;24.938;2023-02-01T03:00:40;93377.41;;;-2.34;82.70
8294;BME280;4185;41.506;24.938;2023-02-01T03:03:26;93376.22;;;-2.53;83.87
8294;BME280;4185;41.506;24.938;2023-02-01T03:06:15;93381.53;;;-2.53;83.69
8294;BME280;4185;41.506;24.938;2023-02-01T03:08:43;93379.34;;;-2.58;83.72
8294;BME280;4185;41.506;24.938;2023-02-01T03:11:12;93378.75;;;-2.69;84.26
8294;BME280;4185;41.506;24.938;2023-02-01T03:13:44;93377.19;;;-2.66;84.57
8294;BME280;4185;41.506;24.938;2023-02-01T03:16:14;93376.44;;;-2.67;84.54
8294;BME280;4185;41.506;24.938;2023-02-01T03:18:48;93380.25;;;-2.68;84.47
8294;BME280;4185;41.506;24.938;2023-02-01T03:21:22;93386.50;;;-2.78;84.57
8294;BME280;4185;41.506;24.938;2023-02-01T03:23:51;93388.75;;;-2.76;84.34
8294;BME280;4185;41.506;24.938;2023-02-01T03:26:21;93394.00;;;-2.73;84.47
8294;BME280;4185;41.506;24.938;2023-02-01T03:28:54;93392.22;;;-2.79;83.94
8294;BME280;4185;41.506;24.938;2023-02-01T03:31:22;93400.66;;;-2.84;85.20
8294;BME280;4185;41.506;24.938;2023-02-01T03:33:50;93394.69;;;-2.92;84.87
8294;BME280;4185;41.506;24.938;2023-02-01T03:36:24;93396.16;;;-2.91;85.01
8294;BME280;4185;41.506;24.938;2023-02-01T03:38:58;93401.38;;;-2.84;85.25
8294;BME280;4185;41.506;24.938;2023-02-01T03:41:29;93403.31;;;-2.84;85.30
8294;BME280;4185;41.506;24.938;2023-02-01T03:44:04;93416.63;;;-2.88;84.82
8294;BME280;4185;41.506;24.938;2023-02-01T03:46:37;93414.09;;;-2.95;85.06
8294;BME280;4185;41.506;24.938;2023-02-01T03:49:08;93411.88;;;-3.00;85.69
8294;BME280;4185;41.506;24.938;2023-02-01T03:51:38;93418.72;;;-3.02;86.54
8294;BME280;4185;41.506;24.938;2023-02-01T03:54:09;93412.34;;;-3.05;86.27
8294;BME280;4185;41.506;24.938;2023-02-01T03:56:40;93411.88;;;-3.00;86.35
8294;BME280;4185;41.506;24.938;2023-02-01T03:59:10;93414.81;;;-2.94;85.51
8294;BME280;4185;41.506;24.938;2023-02-01T04:01:37;93412.56;;;-2.96;85.89
8294;BME280;4185;41.506;24.938;2023-02-01T04:04:04;93416.38;;;-2.97;85.43
8294;BME280;4185;41.506;24.938;2023-02-01T04:06:31;93417.19;;;-3.00;85.08
8294;BME280;4185;41.506;24.938;2023-02-01T04:08:59;93419.59;;;-3.09;85.47
8294;BME280;4185;41.506;24.938;2023-02-01T04:11:26;93421.84;;;-3.07;85.90
8294;BME280;4185;41.506;24.938;2023-02-01T04:13:54;93429.50;;;-3.13;86.64
8294;BME280;4185;41.506;24.938;2023-02-01T04:16:21;93434.13;;;-3.17;86.82
8294;BME280;4185;41.506;24.938;2023-02-01T04:18:48;93436.44;;;-3.19;87.39
8294;BME280;4185;41.506;24.938;2023-02-01T04:21:15;93448.66;;;-3.25;88.13
8294;BME280;4185;41.506;24.938;2023-02-01T04:23:42;93453.97;;;-3.25;87.43
8294;BME280;4185;41.506;24.938;2023-02-01T04:26:10;93456.50;;;-3.18;87.51
8294;BME280;4185;41.506;24.938;2023-02-01T04:28:37;93462.91;;;-3.12;87.48
8294;BME280;4185;41.506;24.938;2023-02-01T04:31:04;93459.06;;;-3.11;87.38
8294;BME280;4185;41.506;24.938;2023-02-01T04:33:31;93449.94;;;-3.06;86.71
8294;BME280;4185;41.506;24.938;2023-02-01T04:35:57;93453.28;;;-3.02;86.02
8294;BME280;4185;41.506;24.938;2023-02-01T04:38:24;93453.31;;;-3.06;86.14
8294;BME280;4185;41.506;24.938;2023-02-01T04:40:52;93459.44;;;-3.09;85.88
8294;BME280;4185;41.506;24.938;2023-02-01T04:43:20;93464.78;;;-3.12;86.06
8294;BME280;4185;41.506;24.938;2023-02-01T04:45:47;93476.63;;;-3.17;86.62
8294;BME280;4185;41.506;24.938;2023-02-01T04:48:15;93463.78;;;-3.22;87.06
8294;BME280;4185;41.506;24.938;2023-02-01T04:50:43;93467.50;;;-3.16;87.18
8294;BME280;4185;41.506;24.938;2023-02-01T04:53:10;93469.31;;;-3.09;86.60
8294;BME280;4185;41.506;24.938;2023-02-01T04:55:37;93459.06;;;-3.11;86.28
8294;BME280;4185;41.506;24.938;2023-02-01T04:58:04;93469.00;;;-3.15;86.28
8294;BME280;4185;41.506;24.938;2023-02-01T05:00:32;93472.56;;;-3.25;86.35
8294;BME280;4185;41.506;24.938;2023-02-01T05:02:59;93478.22;;;-3.23;86.31
8294;BME280;4185;41.506;24.938;2023-02-01T05:05:26;93467.63;;;-3.26;86.17
8294;BME280;4185;41.506;24.938;2023-02-01T05:07:53;93483.56;;;-3.26;86.63
8294;BME280;4185;41.506;24.938;2023-02-01T05:10:20;93485.13;;;-3.29;86.45
8294;BME280;4185;41.506;24.938;2023-02-01T05:12:47;93481.75;;;-3.33;86.70
8294;BME280;4185;41.506;24.938;2023-02-01T05:15:33;93485.19;;;-3.36;86.67
8294;BME280;4185;41.506;24.938;2023-02-01T05:18:00;93492.72;;;-3.31;86.20
8294;BME280;4185;41.506;24.938;2023-02-01T05:20:26;93496.78;;;-3.23;86.25
8294;BME280;4185;41.506;24.938;2023-02-01T05:22:53;93484.72;;;-3.27;85.76
8294;BME280;4185;41.506;24.938;2023-02-01T05:25:20;93492.59;;;-3.20;85.96
8294;BME280;4185;41.506;24.938;2023-02-01T05:27:47;93496.34;;;-3.18;85.91
8294;BME280;4185;41.506;24.938;2023-02-01T05:30:14;93497.91;;;-3.20;85.63
8294;BME280;4185;41.506;24.938;2023-02-01T05:32:42;93495.66;;;-3.22;85.90
8294;BME280;4185;41.506;24.938;2023-02-01T05:35:09;93505.56;;;-3.26;85.56
8294;BME280;4185;41.506;24.938;2023-02-01T05:37:36;93489.03;;;-3.37;85.96
8294;BME280;4185;41.506;24.938;2023-02-01T05:40:04;93507.25;;;-3.39;85.92
8294;BME280;4185;41.506;24.938;2023-02-01T05:42:32;93519.34;;;-3.38;85.79
8294;BME280;4185;41.506;24.938;2023-02-01T05:44:59;93508.75;;;-3.38;85.80
8294;BME280;4185;41.506;24.938;2023-02-01T05:47:25;93505.59;;;-3.29;85.95
8294;BME280;4185;41.506;24.938;2023-02-01T05:49:54;93512.72;;;-3.23;85.19
8294;BME280;4185;41.506;24.938;2023-02-01T05:52:21;93499.31;;;-3.12;84.32
8294;BME280;4185;41.506;24.938;2023-02-01T05:54:48;93497.69;;;-3.03;84.21
8294;BME280;4185;41.506;24.938;2023-02-01T05:57:15;93499.50;;;-2.96;84.09
8294;BME280;4185;41.506;24.938;2023-02-01T05:59:42;93505.56;;;-2.96;84.25
8294;BME280;4185;41.506;24.938;2023-02-01T06:02:10;93501.31;;;-2.90;83.95
8294;BME280;4185;41.506;24.938;2023-02-01T06:04:37;93498.25;;;-2.88;83.58
8294;BME280;4185;41.506;24.938;2023-02-01T06:07:07;93497.41;;;-2.82;83.75
8294;BME280;4185;41.506;24.938;2023-02-01T06:09:35;93498.56;;;-2.83;83.04
8294;BME280;4185;41.506;24.938;2023-02-01T06:12:03;93506.78;;;-2.74;83.23
8294;BME280;4185;41.506;24.938;2023-02-01T06:14:30;93510.88;;;-2.66;82.65
8294;BME280;4185;41.506;24.938;2023-02-01T06:16:56;93507.81;;;-2.64;82.28
8294;BME280;4185;41.506;24.938;2023-02-01T06:19:23;93515.97;;;-2.52;82.13
8294;BME280;4185;41.506;24.938;2023-02-01T06:21:50;93511.34;;;-2.47;81.34
8294;BME280;4185;41.506;24.938;2023-02-01T06:24:19;93518.25;;;-2.54;81.82
8294;BME280;4185;41.506;24.938;2023-02-01T06:26:46;93516.81;;;-2.58;81.71
8294;BME280;4185;41.506;24.938;2023-02-01T06:29:13;93518.63;;;-2.52;81.71
8294;BME280;4185;41.506;24.938;2023-02-01T06:31:40;93513.19;;;-2.44;82.16
8294;BME280;4185;41.506;24.938;2023-02-01T06:34:08;93518.06;;;-2.39;81.65
8294;BME280;4185;41.506;24.938;2023-02-01T06:36:35;93516.56;;;-2.40;81.97
8294;BME280;4185;41.506;24.938;2023-02-01T06:39:02;93517.75;;;-2.45;82.07
8294;BME280;4185;41.506;24.938;2023-02-01T06:41:30;93521.94;;;-2.44;81.83
8294;BME280;4185;41.506;24.938;2023-02-01T06:43:59;93521.06;;;-2.37;82.60
8294;BME280;4185;41.506;24.938;2023-02-01T06:46:26;93515.66;;;-2.30;81.57
8294;BME280;4185;41.506;24.938;2023-02-01T06:48:53;93526.25;;;-2.27;82.24
8294;BME280;4185;41.506;24.938;2023-02-01T06:51:22;93519.34;;;-2.24;81.54
8294;BME280;4185;41.506;24.938;2023-02-01T06:53:49;93523.19;;;-2.25;82.03
8294;BME280;4185;41.506;24.938;2023-02-01T06:56:16;93518.84;;;-2.16;81.82
8294;BME280;4185;41.506;24.938;2023-02-01T06:58:45;93520.63;;;-2.09;81.56
8294;BME280;4185;41.506;24.938;2023-02-01T07:01:12;93521.69;;;-2.03;81.67
8294;BME280;4185;41.506;24.938;2023-02-01T07:03:40;93528.75;;;-1.93;81.43
8294;BME280;4185;41.506;24.938;2023-02-01T07:06:07;93531.00;;;-1.92;81.05
8294;BME280;4185;41.506;24.938;2023-02-01T07:08:35;93524.91;;;-1.92;80.30
8294;BME280;4185;41.506;24.938;2023-02-01T07:11:03;93528.03;;;-1.97;80.33
8294;BME280;4185;41.506;24.938;2023-02-01T07:13:30;93532.91;;;-1.92;80.48
8294;BME280;4185;41.506;24.938;2023-02-01T07:16:02;93533.13;;;-1.83;80.21
8294;BME280;4185;41.506;24.938;2023-02-01T07:18:30;93536.16;;;-1.81;79.75
8294;BME280;4185;41.506;24.938;2023-02-01T07:20:58;93544.69;;;-1.70;80.04
8294;BME280;4185;41.506;24.938;2023-02-01T07:23:26;93542.03;;;-1.70;79.61
8294;BME280;4185;41.506;24.938;2023-02-01T07:25:54;93540.59;;;-1.75;80.53
8294;BME280;4185;41.506;24.938;2023-02-01T07:28:21;93537.47;;;-1.70;80.71
8294;BME280;4185;41.506;24.938;2023-02-01T07:30:48;93548.78;;;-1.66;80.55
8294;BME280;4185;41.506;24.938;2023-02-01T07:33:19;93546.44;;;-1.60;81.04
8294;BME280;4185;41.506;24.938;2023-02-01T07:35:46;93548.56;;;-1.52;80.86
8294;BME280;4185;41.506;24.938;2023-02-01T07:38:14;93548.44;;;-1.45;79.94
8294;BME280;4185;41.506;24.938;2023-02-01T07:40:41;93543.75;;;-1.37;79.81
8294;BME280;4185;41.506;24.938;2023-02-01T07:43:08;93531.91;;;-1.36;79.96
8294;BME280;4185;41.506;24.938;2023-02-01T07:45:36;93548.38;;;-1.41;80.54
8294;BME280;4185;41.506;24.938;2023-02-01T07:48:03;93541.34;;;-1.32;80.58
8294;BME280;4185;41.506;24.938;2023-02-01T07:50:32;93553.28;;;-1.20;83.18
8294;BME280;4185;41.506;24.938;2023-02-01T07:52:59;93542.84;;;-1.11;81.29
8294;BME280;4185;41.506;24.938;2023-02-01T07:55:26;93529.53;;;-1.11;80.70
8294;BME280;4185;41.506;24.938;2023-02-01T07:57:57;93536.63;;;-1.04;80.91
8294;BME280;4185;41.506;24.938;2023-02-01T08:00:24;93538.47;;;-1.01;80.75
8294;BME280;4185;41.506;24.938;2023-02-01T08:03:08;93541.75;;;-0.94;80.21
8294;BME280;4185;41.506;24.938;2023-02-01T08:05:36;93546.59;;;-0.89;79.97
8294;BME280;4185;41.506;24.938;2023-02-01T08:08:04;93545.38;;;-0.84;80.30
8294;BME280;4185;41.506;24.938;2023-02-01T08:10:30;93554.75;;;-0.76;79.99
8294;BME280;4185;41.506;24.938;2023-02-01T08:12:58;93552.41;;;-0.74;79.09
8294;BME280;4185;41.506;24.938;2023-02-01T08:15:25;93551.59;;;-0.71;80.15
8294;BME280;4185;41.506;24.938;2023-02-01T08:17:52;93560.59;;;-0.65;80.32
8294;BME280;4185;41.506;24.938;2023-02-01T08:20:20;93554.72;;;-0.57;79.71
8294;BME280;4185;41.506;24.938;2023-02-01T08:22:50;93547.72;;;-0.51;79.24
8294;BME280;4185;41.506;24.938;2023-02-01T08:25:17;93548.59;;;-0.38;81.41
8294;BME280;4185;41.506;24.938;2023-02-01T08:27:45;93547.94;;;-0.26;79.18
8294;BME280;4185;41.506;24.938;2023-02-01T08:30:12;93544.78;;;-0.21;78.30
8294;BME280;4185;41.506;24.938;2023-02-01T08:32:39;93552.22;;;-0.12;78.05
8294;BME280;4185;41.506;24.938;2023-02-01T08:35:07;93553.34;;;-0.13;78.46
8294;BME280;4185;41.506;24.938;2023-02-01T08:37:34;93557.47;;;-0.09;78.07
8294;BME280;4185;41.506;24.938;2023-02-01T08:40:03;93534.25;;;-0.12;77.90
8294;BME280;4185;41.506;24.938;2023-02-01T08:42:30;93560.28;;;0.00;76.64
8294;BME280;4185;41.506;24.938;2023-02-01T08:45:15;93547.44;;;-0.05;77.33
8294;BME280;4185;41.506;24.938;2023-02-01T08:47:41;93558.22;;;0.08;77.58
8294;BME280;4185;41.506;24.938;2023-02-01T08:50:09;93561.88;;;0.14;77.32
8294;BME280;4185;41.506;24.938;2023-02-01T08:52:36;93557.22;;;0.18;76.31
8294;BME280;4185;41.506;24.938;2023-02-01T08:55:06;93566.97;;;0.25;76.24
8294;BME280;4185;41.506;24.938;2023-02-01T08:57:33;93564.47;;;0.34;74.51
8294;BME280;4185;41.506;24.938;2023-02-01T09:00:00;93567.88;;;0.34;73.72
8294;BME280;4185;41.506;24.938;2023-02-01T09:02:27;93576.66;;;0.35;73.92
8294;BME280;4185;41.506;24.938;2023-02-01T09:04:55;93565.81;;;0.42;73.27
8294;BME280;4185;41.506;24.938;2023-02-01T09:07:22;93574.81;;;0.48;73.42
8294;BME280;4185;41.506;24.938;2023-02-01T09:09:49;93569.28;;;0.55;71.94
8294;BME280;4185;41.506;24.938;2023-02-01T09:12:17;93565.34;;;0.59;68.65
8294;BME280;4185;41.506;24.938;2023-02-01T09:14:44;93569.03;;;0.65;69.03
8294;BME280;4185;41.506;24.938;2023-02-01T09:17:11;93566.50;;;0.74;68.33
8294;BME280;4185;41.506;24.938;2023-02-01T09:19:38;93562.38;;;0.86;68.53
8294;BME280;4185;41.506;24.938;2023-02-01T09:22:05;93560.50;;;0.99;66.80
8294;BME280;4185;41.506;24.938;2023-02-01T09:24:32;93558.06;;;1.04;66.41
8294;BME280;4185;41.506;24.938;2023-02-01T09:26:59;93549.28;;;1.04;68.25
8294;BME280;4185;41.506;24.938;2023-02-01T09:29:27;93561.81;;;1.07;66.65
8294;BME280;4185;41.506;24.938;2023-02-01T09:31:54;93556.25;;;1.14;67.66
8294;BME280;4185;41.506;24.938;2023-02-01T09:34:21;93559.28;;;1.16;67.83
8294;BME280;4185;41.506;24.938;2023-02-01T09:36:48;93553.81;;;1.19;67.21
8294;BME280;4185;41.506;24.938;2023-02-01T09:39:15;93563.25;;;1.24;67.93
8294;BME280;4185;41.506;24.938;2023-02-01T09:41:50;93561.66;;;1.27;68.02
8294;BME280;4185;41.506;24.938;2023-02-01T09:44:37;93555.69;;;1.35;64.15
8294;BME280;4185;41.506;24.938;2023-02-01T09:47:11;93553.13;;;1.44;62.73
8294;BME280;4185;41.506;24.938;2023-02-01T09:49:45;93548.00;;;1.50;63.30
8294;BME280;4185;41.506;24.938;2023-02-01T09:52:17;93555.94;;;1.53;62.37
8294;BME280;4185;41.506;24.938;2023-02-01T09:54:52;93547.38;;;1.58;64.62
8294;BME280;4185;41.506;24.938;2023-02-01T09:57:25;93543.50;;;1.59;63.02
8294;BME280;4185;41.506;24.938;2023-02-01T09:59:59;93545.66;;;1.64;64.21
8294;BME280;4185;41.506;24.938;2023-02-01T10:02:29;93532.50;;;1.70;62.55
8294;BME280;4185;41.506;24.938;2023-02-01T10:04:58;93535.06;;;1.73;63.30
8294;BME280;4185;41.506;24.938;2023-02-01T10:07:34;93527.16;;;1.82;63.20
8294;BME280;4185;41.506;24.938;2023-02-01T10:10:10;93513.94;;;1.88;62.13
8294;BME280;4185;41.506;24.938;2023-02-01T10:13:02;93504.44;;;1.99;62.57
8294;BME280;4185;41.506;24.938;2023-02-01T10:15:44;93511.81;;;2.08;62.84
8294;BME280;4185;41.506;24.938;2023-02-01T10:18:28;93510.06;;;2.14;60.10
8294;BME280;4185;41.506;24.938;2023-02-01T10:21:08;93509.41;;;2.22;61.10
8294;BME280;4185;41.506;24.938;2023-02-01T10:24:02;93495.47;;;2.27;61.50
8294;BME280;4185;41.506;24.938;2023-02-01T10:26:34;93508.25;;;2.58;61.85
8294;BME280;4185;41.506;24.938;2023-02-01T10:29:14;93496.69;;;2.82;60.02
8294;BME280;4185;41.506;24.938;2023-02-01T10:31:43;93498.69;;;2.91;60.01
8294;BME280;4185;41.506;24.938;2023-02-01T10:34:17;93498.31;;;3.01;59.91
8294;BME280;4185;41.506;24.938;2023-02-01T10:36:53;93500.88;;;3.05;59.47
8294;BME280;4185;41.506;24.938;2023-02-01T10:39:20;93491.44;;;3.22;59.77
8294;BME280;4185;41.506;24.938;2023-02-01T10:41:48;93501.41;;;3.43;58.33
8294;BME280;4185;41.506;24.938;2023-02-01T10:44:17;93496.34;;;3.45;57.60
8294;BME280;4185;41.506;24.938;2023-02-01T10:46:49;93493.91;;;4.08;57.25
8294;BME280;4185;41.506;24.938;2023-02-01T10:49:18;93494.59;;;4.57;55.75
8294;BME280;4185;41.506;24.938;2023-02-01T10:51:52;93491.03;;;4.69;56.76
8294;BME280;4185;41.506;24.938;2023-02-01T10:54:22;93484.44;;;4.70;53.99
8294;BME280;4185;41.506;24.938;2023-02-01T10:56:57;93488.63;;;4.62;54.54
8294;BME280;4185;41.506;24.938;2023-02-01T10:59:28;93487.91;;;4.71;54.41
8294;BME280;4185;41.506;24.938;2023-02-01T11:02:00;93485.66;;;4.51;53.17
8294;BME280;4185;41.506;24.938;2023-02-01T11:04:32;93486.47;;;4.12;52.28
8294;BME280;4185;41.506;24.938;2023-02-01T11:07:15;93477.91;;;3.96;52.81
8294;BME280;4185;41.506;24.938;2023-02-01T11:09:48;93484.44;;;4.34;52.75
8294;BME280;4185;41.506;24.938;2023-02-01T11:12:28;93480.81;;;4.19;51.89
8294;BME280;4185;41.506;24.938;2023-02-01T11:15:02;93476.75;;;4.15;52.58
8294;BME280;4185;41.506;24.938;2023-02-01T11:17:35;93484.72;;;4.36;52.25
8294;BME280;4185;41.506;24.938;2023-02-01T11:20:13;93474.72;;;4.91;52.47
8294;BME280;4185;41.506;24.938;2023-02-01T11:22:45;93457.19;;;5.32;51.71
8294;BME280;4185;41.506;24.938;2023-02-01T11:25:14;93442.53;;;5.33;52.78
8294;BME280;4185;41.506;24.938;2023-02-01T11:27:43;93448.69;;;5.66;51.13
8294;BME280;4185;41.506;24.938;2023-02-01T11:30:15;93452.78;;;6.50;49.76
8294;BME280;4185;41.506;24.938;2023-02-01T11:32:46;93445.19;;;6.63;48.70
8294;BME280;4185;41.506;24.938;2023-02-01T11:35:18;93446.19;;;7.04;46.89
8294;BME280;4185;41.506;24.938;2023-02-01T11:37:52;93441.16;;;7.70;44.96
8294;BME280;4185;41.506;24.938;2023-02-01T11:40:26;93434.72;;;7.82;45.02
8294;BME280;4185;41.506;24.938;2023-02-01T11:42:55;93437.69;;;8.33;43.92
8294;BME280;4185;41.506;24.938;2023-02-01T11:45:26;93441.44;;;8.21;43.19
8294;BME280;4185;41.506;24.938;2023-02-01T11:47:56;93442.56;;;7.80;42.40
8294;BME280;4185;41.506;24.938;2023-02-01T11:50:30;93434.25;;;8.32;42.41
8294;BME280;4185;41.506;24.938;2023-02-01T11:53:09;93425.06;;;8.10;42.75
8294;BME280;4185;41.506;24.938;2023-02-01T11:55:50;93431.03;;;7.50;43.42
8294;BME280;4185;41.506;24.938;2023-02-01T11:58:40;93425.34;;;7.04;46.35
8294;BME280;4185;41.506;24.938;2023-02-01T12:01:25;93431.69;;;7.01;46.57
8294;BME280;4185;41.506;24.938;2023-02-01T12:04:45;93423.13;;;7.17;46.72
8294;BME280;4185;41.506;24.938;2023-02-01T12:07:20;93434.94;;;7.05;46.19
8294;BME280;4185;41.506;24.938;2023-02-01T12:10:00;93434.28;;;6.96;47.41
8294;BME280;4185;41.506;24.938;2023-02-01T12:12:38;93432.31;;;6.58;46.52
8294;BME280;4185;41.506;24.938;2023-02-01T12:15:31;93437.91;;;6.31;45.97
8294;BME280;4185;41.506;24.938;2023-02-01T12:21:05;93429.13;;;5.98;48.06
8294;BME280;4185;41.506;24.938;2023-02-01T12:23:48;93433.56;;;6.34;48.94
8294;BME280;4185;41.506;24.938;2023-02-01T12:26:40;93427.66;;;6.44;49.65
8294;BME280;4185;41.506;24.938;2023-02-01T12:29:22;93424.72;;;6.33;49.24
8294;BME280;4185;41.506;24.938;2023-02-01T12:32:09;93435.31;;;6.37;48.57
8294;BME280;4185;41.506;24.938;2023-02-01T12:34:55;93430.22;;;7.15;46.81
8294;BME280;4185;41.506;24.938;2023-02-01T12:37:39;93435.25;;;6.69;46.09
8294;BME280;4185;41.506;24.938;2023-02-01T12:40:19;93434.41;;;6.40;46.34
8294;BME280;4185;41.506;24.938;2023-02-01T12:42:56;93439.75;;;6.25;46.56
8294;BME280;4185;41.506;24.938;2023-02-01T12:45:28;93427.69;;;6.11;46.58
8294;BME280;4185;41.506;24.938;2023-02-01T12:48:01;93441.34;;;6.08;47.13
8294;BME280;4185;41.506;24.938;2023-02-01T12:50:32;93431.41;;;6.14;46.47
8294;BME280;4185;41.506;24.938;2023-02-01T12:53:09;93421.56;;;6.11;46.11
8294;BME280;4185;41.506;24.938;2023-02-01T12:55:43;93428.88;;;6.96;46.15
8294;BME280;4185;41.506;24.938;2023-02-01T12:58:17;93422.31;;;6.73;44.41
8294;BME280;4185;41.506;24.938;2023-02-01T13:00:49;93425.78;;;6.50;45.94
8294;BME280;4185;41.506;24.938;2023-02-01T13:03:29;93428.22;;;6.25;45.43
8294;BME280;4185;41.506;24.938;2023-02-01T13:06:02;93426.66;;;6.09;45.82
8294;BME280;4185;41.506;24.938;2023-02-01T13:08:41;93437.53;;;5.91;45.96
8294;BME280;4185;41.506;24.938;2023-02-01T13:11:12;93419.88;;;5.81;44.71
8294;BME280;4185;41.506;24.938;2023-02-01T13:13:47;93415.97;;;5.82;45.15
8294;BME280;4185;41.506;24.938;2023-02-01T13:16:17;93411.63;;;5.93;46.45
8294;BME280;4185;41.506;24.938;2023-02-01T13:18:51;93420.75;;;5.96;46.90
8294;BME280;4185;41.506;24.938;2023-02-01T13:21:24;93414.16;;;5.97;46.57
8294;BME280;4185;41.506;24.938;2023-02-01T13:23:53;93416.84;;;5.97;46.59
8294;BME280;4185;41.506;24.938;2023-02-01T13:26:20;93416.22;;;6.02;46.56
8294;BME280;4185;41.506;24.938;2023-02-01T13:28:49;93409.03;;;5.99;47.08
8294;BME280;4185;41.506;24.938;2023-02-01T13:31:38;93422.25;;;5.97;46.50
8294;BME280;4185;41.506;24.938;2023-02-01T13:34:42;93419.41;;;5.91;46.89
8294;BME280;4185;41.506;24.938;2023-02-01T13:37:32;93432.78;;;5.86;47.69
8294;BME280;4185;41.506;24.938;2023-02-01T13:40:16;93438.91;;;5.86;47.24
8294;BME280;4185;41.506;24.938;2023-02-01T13:42:48;93427.69;;;6.11;46.70
8294;BME280;4185;41.506;24.938;2023-02-01T13:45:19;93428.53;;;5.94;46.54